Time;durP1;ratioP1;P1;durP2;ratioP2;P2;SDS_P1;SDS_P2;PMS_P1;PMS_P2;Temp;Humidity;BMP_temperature;BMP_pressure;BME280_temperature;BME280_humidity;BME280_pressure;Samples;Min_cycle;Max_cycle;Signal;HPM_P1;HPM_P2
2022/01/31 00:01:58;;;;;;;25.27;22.83;;;2.20;88.20;;;;;;5052937;28;20202;-71
2022/01/31 00:04:25;;;;;;;296.20;51.60;;;2.20;88.40;;;;;;5052594;28;20629;-72
2022/01/31 00:06:53;;;;;;;32.40;23.85;;;2.30;89.20;;;;;;5052739;28;20637;-72
2022/01/31 00:09:22;;;;;;;28.38;22.50;;;2.30;92.60;;;;;;5052459;28;20196;-71
2022/01/31 00:11:58;;;;;;;221.40;42.42;;;2.30;93.70;;;;;;5052663;28;20358;-72
2022/01/31 00:14:36;;;;;;;23.80;21.25;;;2.40;95.10;;;;;;5052356;28;20192;-71
2022/01/31 00:17:04;;;;;;;23.67;21.60;;;2.40;94.10;;;;;;5052798;28;20200;-72
2022/01/31 00:19:32;;;;;;;24.63;22.42;;;2.50;92.20;;;;;;5052220;28;20371;-72
2022/01/31 00:21:59;;;;;;;24.55;22.40;;;2.60;90.10;;;;;;5052583;28;20283;-72
2022/01/31 00:24:26;;;;;;;22.85;20.95;;;2.60;88.80;;;;;;5052518;28;20687;-72
2022/01/31 00:26:55;;;;;;;23.88;21.83;;;2.40;94.70;;;;;;5052397;28;20203;-72
2022/01/31 00:29:21;;;;;;;37.85;22.70;;;2.40;92.40;;;;;;5052286;28;20197;-72
2022/01/31 00:31:48;;;;;;;22.88;20.85;;;2.40;96.00;;;;;;5052389;28;20216;-72
2022/01/31 00:34:15;;;;;;;24.08;22.05;;;2.40;93.20;;;;;;5052265;28;20682;-72
2022/01/31 00:36:42;;;;;;;24.42;21.98;;;2.40;91.30;;;;;;5052274;28;20220;-71
2022/01/31 00:39:09;;;;;;;23.15;21.13;;;2.40;90.70;;;;;;5052178;28;20204;-71
2022/01/31 00:41:36;;;;;;;25.33;22.98;;;2.50;89.30;;;;;;5052516;28;20259;-71
2022/01/31 00:44:16;;;;;;;22.70;21.02;;;2.70;87.90;;;;;;5052382;28;20295;-72
2022/01/31 00:46:49;;;;;;;23.83;21.70;;;2.70;86.80;;;;;;5052272;28;20214;-72
2022/01/31 00:49:24;;;;;;;24.02;21.75;;;2.70;87.10;;;;;;5052224;28;20235;-72
2022/01/31 00:51:51;;;;;;;23.05;20.88;;;2.80;87.20;;;;;;5052283;28;20628;-72
2022/01/31 00:54:18;;;;;;;22.48;20.48;;;2.90;86.70;;;;;;5052309;28;20196;-72
2022/01/31 00:56:45;;;;;;;22.67;20.65;;;2.90;87.10;;;;;;5052051;28;20216;-72
2022/01/31 00:59:13;;;;;;;22.38;20.67;;;2.90;86.40;;;;;;5051762;28;20235;-71
2022/01/31 01:01:40;;;;;;;23.63;21.80;;;3.00;85.70;;;;;;5052162;28;20217;-71
2022/01/31 01:04:07;;;;;;;23.55;21.52;;;3.00;84.90;;;;;;5052044;28;20193;-71
2022/01/31 01:06:34;;;;;;;23.95;21.95;;;2.90;85.10;;;;;;5052005;28;20232;-71
2022/01/31 01:09:00;;;;;;;23.88;21.98;;;2.80;85.40;;;;;;5051836;28;20207;-71
2022/01/31 01:11:27;;;;;;;23.25;21.23;;;2.90;85.30;;;;;;5051877;28;20614;-72
2022/01/31 01:13:54;;;;;;;23.08;21.15;;;3.00;84.60;;;;;;5052049;28;20661;-71
2022/01/31 01:16:22;;;;;;;22.67;20.98;;;3.00;84.70;;;;;;5051703;28;20694;-72
2022/01/31 01:18:49;;;;;;;23.77;21.60;;;2.90;85.00;;;;;;5051725;28;20292;-72
2022/01/31 01:21:16;;;;;;;24.58;22.30;;;3.00;85.00;;;;;;5051790;28;20223;-72
2022/01/31 01:23:43;;;;;;;24.55;22.55;;;3.00;84.90;;;;;;5051897;28;20623;-72
2022/01/31 01:26:10;;;;;;;23.27;21.15;;;3.00;85.20;;;;;;5051967;28;20193;-71
2022/01/31 01:28:37;;;;;;;23.02;21.60;;;2.90;84.70;;;;;;5052039;28;20632;-71
2022/01/31 01:31:04;;;;;;;24.40;22.10;;;2.90;84.90;;;;;;5051636;28;20216;-72
2022/01/31 01:33:38;;;;;;;25.77;23.13;;;2.90;85.20;;;;;;5051906;28;20274;-72
2022/01/31 01:36:06;;;;;;;24.73;22.85;;;3.00;85.20;;;;;;5051843;28;20323;-72
2022/01/31 01:38:33;;;;;;;24.70;22.48;;;3.00;85.30;;;;;;5051800;28;20201;-71
2022/01/31 01:41:00;;;;;;;24.92;22.52;;;3.00;85.30;;;;;;5052762;28;20213;-71
2022/01/31 01:43:29;;;;;;;23.27;21.38;;;3.10;84.90;;;;;;5055486;28;20206;-72
2022/01/31 01:45:59;;;;;;;24.42;22.17;;;3.10;84.60;;;;;;5055476;28;20219;-72
2022/01/31 01:48:26;;;;;;;25.35;23.27;;;3.20;84.60;;;;;;5055446;28;20203;-71
2022/01/31 01:50:55;;;;;;;24.25;22.30;;;3.20;84.60;;;;;;5055264;28;20303;-71
2022/01/31 01:53:22;;;;;;;24.10;22.10;;;3.10;84.70;;;;;;5055556;28;20197;-71
2022/01/31 01:55:52;;;;;;;22.95;21.33;;;3.20;84.70;;;;;;5055216;28;20231;-71
2022/01/31 01:58:19;;;;;;;24.13;22.20;;;3.20;84.80;;;;;;5055384;28;20200;-71
2022/01/31 02:00:59;;;;;;;25.52;23.10;;;3.20;84.70;;;;;;5054832;28;20224;-71
2022/01/31 02:03:27;;;;;;;25.20;22.90;;;3.30;84.40;;;;;;5055433;28;20250;-71
2022/01/31 02:05:56;;;;;;;24.10;21.83;;;3.40;83.80;;;;;;5055145;28;20680;-71
2022/01/31 02:08:26;;;;;;;24.10;21.95;;;3.40;83.70;;;;;;5055126;28;20708;-72
2022/01/31 02:10:53;;;;;;;25.58;23.20;;;3.50;83.10;;;;;;5054550;28;20306;-72
2022/01/31 02:13:21;;;;;;;26.50;23.77;;;3.40;83.50;;;;;;5055071;28;20284;-71
2022/01/31 02:15:50;;;;;;;25.38;23.00;;;3.50;83.60;;;;;;5054858;28;20569;-71
2022/01/31 02:18:18;;;;;;;23.88;21.75;;;3.40;83.60;;;;;;5054914;28;20291;-72
2022/01/31 02:20:46;;;;;;;23.85;22.15;;;3.40;83.90;;;;;;5054751;28;20220;-72
2022/01/31 02:23:17;;;;;;;25.25;22.95;;;3.30;83.90;;;;;;5054761;28;20207;-71
2022/01/31 02:25:56;;;;;;;25.60;23.00;;;3.30;84.60;;;;;;5054893;28;20214;-71
2022/01/31 02:28:25;;;;;;;24.85;22.85;;;3.30;84.70;;;;;;5054718;28;20665;-71
2022/01/31 02:30:52;;;;;;;23.13;21.15;;;3.20;86.40;;;;;;5054421;28;20216;-71
2022/01/31 02:33:19;;;;;;;23.75;21.75;;;3.30;86.50;;;;;;5054713;28;20287;-71
2022/01/31 02:35:48;;;;;;;23.70;21.63;;;3.40;87.50;;;;;;5054402;28;20756;-71
2022/01/31 02:38:15;;;;;;;23.15;21.15;;;3.50;85.90;;;;;;5054513;28;20566;-71
2022/01/31 02:40:42;;;;;;;24.85;22.85;;;3.50;84.80;;;;;;5054285;28;20632;-72
2022/01/31 02:43:09;;;;;;;23.58;21.20;;;3.50;84.50;;;;;;5054512;28;20207;-71
2022/01/31 02:45:36;;;;;;;24.63;22.40;;;3.40;84.50;;;;;;5054237;28;20235;-71
2022/01/31 02:48:04;;;;;;;105.78;29.98;;;3.40;84.30;;;;;;5054384;28;20714;-71
2022/01/31 02:50:30;;;;;;;24.48;22.42;;;3.40;85.40;;;;;;5054031;28;20581;-71
2022/01/31 02:53:11;;;;;;;26.70;23.92;;;3.40;87.80;;;;;;5053164;28;20563;-72
2022/01/31 02:55:39;;;;;;;23.88;21.98;;;3.40;88.70;;;;;;5053982;28;20289;-71
2022/01/31 02:58:05;;;;;;;24.75;22.70;;;3.50;90.50;;;;;;5054183;28;20613;-71
2022/01/31 03:00:32;;;;;;;24.00;22.10;;;3.40;91.00;;;;;;5053773;28;20752;-71
2022/01/31 03:02:59;;;;;;;25.08;21.90;;;3.50;93.50;;;;;;5054118;28;20292;-71
2022/01/31 03:05:26;;;;;;;23.92;22.17;;;3.50;89.60;;;;;;5053839;28;20690;-71
2022/01/31 03:07:53;;;;;;;24.25;22.40;;;3.50;87.60;;;;;;5053900;28;20206;-71
2022/01/31 03:10:21;;;;;;;23.60;21.60;;;3.50;86.50;;;;;;5053427;28;20223;-71
2022/01/31 03:12:48;;;;;;;25.48;23.27;;;3.60;85.80;;;;;;5053872;28;20193;-71
2022/01/31 03:15:15;;;;;;;22.35;20.50;;;3.60;85.00;;;;;;5053558;28;20682;-71
2022/01/31 03:17:46;;;;;;;23.75;21.90;;;3.60;90.00;;;;;;5053812;28;20203;-71
2022/01/31 03:20:14;;;;;;;24.30;22.50;;;3.50;85.40;;;;;;5053587;28;20250;-71
2022/01/31 03:22:41;;;;;;;24.33;22.23;;;3.50;87.00;;;;;;5053663;28;20201;-72
2022/01/31 03:25:09;;;;;;;165.57;33.83;;;3.50;86.60;;;;;;5053550;28;20203;-72
2022/01/31 03:27:37;;;;;;;24.10;21.80;;;3.60;88.20;;;;;;5053630;28;20569;-71
2022/01/31 03:30:06;;;;;;;25.85;23.45;;;3.70;87.70;;;;;;5053265;28;20217;-71
2022/01/31 03:32:33;;;;;;;24.92;22.92;;;3.80;86.80;;;;;;5053502;28;20674;-71
2022/01/31 03:35:01;;;;;;;23.73;21.92;;;3.70;85.60;;;;;;5053384;28;20254;-71
2022/01/31 03:37:28;;;;;;;23.85;21.67;;;3.70;85.50;;;;;;5053324;28;20216;-71
2022/01/31 03:39:55;;;;;;;24.48;22.48;;;3.80;84.50;;;;;;5053183;28;20216;-71
2022/01/31 03:42:22;;;;;;;24.73;22.30;;;3.80;84.10;;;;;;5053406;28;20192;-71
2022/01/31 03:44:51;;;;;;;23.83;21.88;;;4.00;82.50;;;;;;5053220;28;20765;-72
2022/01/31 03:47:20;;;;;;;24.55;22.70;;;4.10;81.90;;;;;;5053249;28;20193;-71
2022/01/31 03:49:47;;;;;;;26.05;24.27;;;4.10;81.50;;;;;;5052606;28;20693;-72
2022/01/31 03:52:14;;;;;;;25.02;23.17;;;4.10;82.70;;;;;;5053092;28;20197;-71
2022/01/31 03:54:41;;;;;;;24.45;22.45;;;4.00;83.30;;;;;;5053090;28;20291;-72
2022/01/31 03:57:08;;;;;;;23.98;22.27;;;4.00;81.70;;;;;;5053013;28;20307;-71
2022/01/31 03:59:35;;;;;;;24.52;22.13;;;3.90;82.50;;;;;;5052399;28;20566;-72
2022/01/31 04:02:06;;;;;;;22.63;20.83;;;3.90;86.70;;;;;;5052964;28;20207;-71
2022/01/31 04:04:33;;;;;;;22.73;20.98;;;3.90;90.80;;;;;;5052647;28;20549;-71
2022/01/31 04:07:00;;;;;;;23.73;21.88;;;3.90;88.00;;;;;;5052909;28;20192;-71
2022/01/31 04:09:28;;;;;;;25.58;23.58;;;3.90;85.80;;;;;;5052467;28;20224;-71
2022/01/31 04:11:55;;;;;;;26.00;24.00;;;3.90;84.50;;;;;;5052836;28;20283;-71
2022/01/31 04:14:25;;;;;;;24.65;22.60;;;3.90;83.80;;;;;;5052531;28;20192;-71
2022/01/31 04:16:53;;;;;;;26.85;24.67;;;4.00;83.40;;;;;;5052417;28;20216;-71
2022/01/31 04:19:22;;;;;;;25.15;23.02;;;4.10;82.90;;;;;;5052473;28;20197;-71
2022/01/31 04:21:49;;;;;;;25.75;23.77;;;4.10;82.20;;;;;;5052579;28;20223;-71
2022/01/31 04:24:21;;;;;;;27.02;25.02;;;4.10;82.00;;;;;;5052540;28;20650;-72
2022/01/31 04:26:57;;;;;;;27.05;25.23;;;4.20;81.80;;;;;;5052604;28;20201;-71
2022/01/31 04:29:28;;;;;;;24.35;22.55;;;4.30;81.30;;;;;;5052363;28;20254;-71
2022/01/31 04:31:55;;;;;;;25.92;23.80;;;4.40;80.40;;;;;;5052359;28;20677;-72
2022/01/31 04:34:24;;;;;;;24.67;22.75;;;4.30;80.50;;;;;;5052425;28;20296;-72
2022/01/31 04:36:51;;;;;;;22.60;21.05;;;4.30;80.60;;;;;;5052205;28;20594;-72
2022/01/31 04:39:19;;;;;;;25.33;23.20;;;4.40;80.50;;;;;;5052314;28;20199;-71
2022/01/31 04:41:47;;;;;;;24.73;22.83;;;4.40;80.10;;;;;;5052414;28;20213;-71
2022/01/31 04:44:14;;;;;;;24.27;22.60;;;4.50;79.90;;;;;;5052189;28;20193;-71
2022/01/31 04:46:43;;;;;;;26.98;24.98;;;4.50;80.00;;;;;;5052222;28;20193;-72
2022/01/31 04:49:10;;;;;;;24.35;22.33;;;4.50;80.10;;;;;;5052118;28;20292;-72
2022/01/31 04:51:38;;;;;;;25.15;23.15;;;4.60;79.70;;;;;;5052375;28;20252;-72
2022/01/31 04:54:05;;;;;;;24.65;22.38;;;4.60;79.30;;;;;;5052141;28;20226;-71
2022/01/31 04:56:32;;;;;;;25.52;23.23;;;4.70;79.20;;;;;;5052008;28;20220;-72
2022/01/31 04:58:59;;;;;;;24.30;22.48;;;4.60;79.20;;;;;;5052042;28;20603;-72
2022/01/31 05:01:30;;;;;;;25.27;23.40;;;4.60;79.20;;;;;;5052190;28;20703;-72
2022/01/31 05:03:56;;;;;;;24.48;22.67;;;4.60;79.40;;;;;;5052145;28;20196;-72
2022/01/31 05:06:30;;;;;;;26.02;24.25;;;4.60;79.50;;;;;;5052327;28;20280;-72
2022/01/31 05:08:59;;;;;;;24.02;22.42;;;4.80;79.40;;;;;;5051822;28;20203;-71
2022/01/31 05:11:26;;;;;;;25.55;23.48;;;4.80;79.20;;;;;;5051724;28;20212;-72
2022/01/31 05:13:52;;;;;;;25.10;23.30;;;5.00;78.70;;;;;;5052063;28;20232;-72
2022/01/31 05:16:19;;;;;;;26.02;23.55;;;4.90;78.80;;;;;;5054085;28;20221;-72
2022/01/31 05:18:46;;;;;;;23.52;21.70;;;4.90;78.90;;;;;;5056085;28;20196;-72
2022/01/31 05:21:13;;;;;;;24.58;22.33;;;4.90;79.30;;;;;;5055942;28;20219;-72
2022/01/31 05:23:40;;;;;;;24.58;22.45;;;4.90;79.30;;;;;;5055881;28;20666;-71
2022/01/31 05:26:08;;;;;;;23.98;22.10;;;4.90;79.10;;;;;;5055990;28;20207;-71
2022/01/31 05:28:35;;;;;;;24.42;22.67;;;5.00;79.00;;;;;;5055870;28;20204;-72
2022/01/31 05:31:02;;;;;;;23.05;21.52;;;5.00;79.00;;;;;;5055634;28;20255;-71
2022/01/31 05:33:29;;;;;;;23.92;22.30;;;5.00;79.20;;;;;;5055959;28;20566;-71
2022/01/31 05:35:56;;;;;;;26.05;24.15;;;4.90;79.30;;;;;;5055725;28;20214;-72
2022/01/31 05:38:23;;;;;;;25.95;24.02;;;4.90;79.40;;;;;;5055547;28;20213;-71
2022/01/31 05:40:50;;;;;;;24.45;22.80;;;5.00;79.10;;;;;;5055492;28;20224;-72
2022/01/31 05:43:19;;;;;;;25.85;23.80;;;5.00;79.00;;;;;;5055830;28;20283;-72
2022/01/31 05:45:47;;;;;;;24.55;22.85;;;5.00;79.90;;;;;;5055553;28;20193;-72
2022/01/31 05:48:18;;;;;;;24.42;22.63;;;4.90;80.10;;;;;;5055519;28;20196;-71
2022/01/31 05:50:46;;;;;;;23.70;21.95;;;4.90;79.70;;;;;;5055039;28;20252;-71
2022/01/31 05:53:13;;;;;;;24.90;22.77;;;5.00;79.50;;;;;;5055392;28;20283;-72
2022/01/31 05:55:41;;;;;;;23.33;21.65;;;5.00;79.50;;;;;;5055395;28;20280;-72
2022/01/31 05:58:08;;;;;;;23.75;22.25;;;5.10;78.80;;;;;;5055409;28;20220;-71
2022/01/31 06:00:37;;;;;;;24.58;22.60;;;5.20;78.40;;;;;;5054881;28;20220;-72
2022/01/31 06:03:05;;;;;;;23.38;21.75;;;5.20;78.30;;;;;;5055190;28;20205;-72
2022/01/31 06:05:32;;;;;;;25.50;23.42;;;5.20;78.20;;;;;;5055192;28;20196;-72
2022/01/31 06:07:58;;;;;;;24.08;22.35;;;5.30;78.10;;;;;;5055196;28;20650;-71
2022/01/31 06:10:25;;;;;;;26.42;24.05;;;5.30;78.10;;;;;;5054623;28;20213;-72
2022/01/31 06:12:53;;;;;;;21.83;20.17;;;5.30;78.20;;;;;;5055112;28;20287;-72
2022/01/31 06:15:20;;;;;;;25.55;23.60;;;5.30;78.10;;;;;;5054847;28;20375;-72
2022/01/31 06:17:48;;;;;;;25.52;23.88;;;5.30;78.20;;;;;;5054882;28;20223;-72
2022/01/31 06:20:15;;;;;;;26.00;24.10;;;5.40;78.00;;;;;;5054670;28;20304;-72
2022/01/31 06:22:47;;;;;;;26.13;24.15;;;5.40;79.30;;;;;;5054954;28;20201;-71
2022/01/31 06:25:14;;;;;;;25.42;23.45;;;5.40;79.40;;;;;;5054863;28;20207;-71
2022/01/31 06:27:41;;;;;;;23.88;21.95;;;5.50;79.80;;;;;;5054513;28;20189;-71
2022/01/31 06:30:09;;;;;;;25.00;23.02;;;5.50;79.80;;;;;;5054366;28;20212;-71
2022/01/31 06:32:36;;;;;;;25.15;23.23;;;5.30;81.10;;;;;;5054696;28;20196;-71
2022/01/31 06:35:08;;;;;;;23.15;21.35;;;5.30;81.40;;;;;;5054662;28;20266;-72
2022/01/31 06:37:35;;;;;;;24.13;22.42;;;5.30;81.70;;;;;;5054605;28;20639;-72
2022/01/31 06:40:03;;;;;;;23.40;21.80;;;5.30;82.50;;;;;;5054400;28;20213;-71
2022/01/31 06:42:30;;;;;;;21.73;20.23;;;5.20;83.40;;;;;;5054698;28;20207;-71
2022/01/31 06:44:57;;;;;;;23.48;21.40;;;5.20;83.90;;;;;;5054375;28;20666;-72
2022/01/31 06:47:25;;;;;;;24.70;22.80;;;5.20;84.70;;;;;;5054360;28;20623;-71
2022/01/31 06:49:52;;;;;;;24.45;22.17;;;5.10;84.80;;;;;;5054099;28;20213;-71
2022/01/31 06:52:20;;;;;;;25.05;23.25;;;5.10;84.80;;;;;;5054433;28;20203;-72
2022/01/31 06:54:50;;;;;;;23.08;21.00;;;4.90;85.50;;;;;;5054281;28;20237;-71
2022/01/31 06:57:17;;;;;;;23.40;21.60;;;4.90;86.60;;;;;;5054331;28;20216;-71
2022/01/31 06:59:44;;;;;;;22.02;20.50;;;5.00;86.40;;;;;;5053569;28;20717;-71
2022/01/31 07:02:11;;;;;;;24.25;22.65;;;4.90;86.80;;;;;;5054173;28;20283;-71
2022/01/31 07:04:38;;;;;;;25.20;23.27;;;4.90;87.10;;;;;;5054019;28;20193;-72
2022/01/31 07:07:05;;;;;;;24.90;22.88;;;4.80;87.70;;;;;;5054168;28;20203;-71
2022/01/31 07:09:35;;;;;;;22.17;20.45;;;4.80;87.80;;;;;;5053560;28;20547;-71
2022/01/31 07:12:05;;;;;;;24.42;22.58;;;4.80;88.20;;;;;;5053907;28;20197;-71
2022/01/31 07:14:32;;;;;;;22.38;20.50;;;4.80;87.80;;;;;;5053569;28;20196;-71
2022/01/31 07:17:01;;;;;;;23.63;22.02;;;4.90;87.70;;;;;;5053768;28;20224;-71
2022/01/31 07:19:31;;;;;;;22.88;20.95;;;4.90;88.10;;;;;;5053666;28;20199;-71
2022/01/31 07:21:58;;;;;;;43.83;22.10;;;4.90;88.70;;;;;;5053817;28;20287;-71
2022/01/31 07:24:31;;;;;;;21.73;20.08;;;4.90;88.80;;;;;;5053657;28;20301;-71
2022/01/31 07:26:59;;;;;;;24.38;22.02;;;4.90;89.20;;;;;;5053503;28;20196;-71
2022/01/31 07:29:26;;;;;;;21.65;19.98;;;4.90;89.30;;;;;;5053394;28;20197;-72
2022/01/31 07:31:53;;;;;;;24.70;22.52;;;4.90;89.30;;;;;;5053501;28;20223;-71
2022/01/31 07:34:21;;;;;;;22.35;20.75;;;5.00;88.90;;;;;;5053419;28;20243;-72
2022/01/31 07:36:48;;;;;;;21.67;19.63;;;5.00;88.80;;;;;;5053220;28;20205;-71
2022/01/31 07:39:16;;;;;;;23.48;21.70;;;5.00;88.80;;;;;;5052497;28;20629;-71
2022/01/31 07:41:44;;;;;;;21.65;20.02;;;5.00;88.90;;;;;;5053394;28;20223;-71
2022/01/31 07:44:13;;;;;;;21.45;20.00;;;4.80;89.30;;;;;;5053216;28;20292;-71
2022/01/31 07:46:40;;;;;;;22.98;21.48;;;4.80;90.20;;;;;;5053305;28;20207;-71
2022/01/31 07:49:08;;;;;;;19.63;18.10;;;5.00;89.70;;;;;;5053131;28;20265;-72
2022/01/31 07:51:38;;;;;;;21.23;19.70;;;5.00;89.40;;;;;;5053090;28;20213;-71
2022/01/31 07:54:05;;;;;;;19.65;18.27;;;5.00;89.40;;;;;;5053262;28;20208;-71
2022/01/31 07:56:31;;;;;;;20.45;18.70;;;5.00;91.10;;;;;;5052977;28;20201;-71
2022/01/31 07:58:58;;;;;;;19.35;18.05;;;5.00;90.20;;;;;;5052628;28;20720;-71
2022/01/31 08:01:27;;;;;;;19.60;18.13;;;5.10;89.80;;;;;;5052877;28;20248;-71
2022/01/31 08:03:54;;;;;;;20.77;19.45;;;5.00;89.60;;;;;;5052793;28;20666;-71
2022/01/31 08:06:21;;;;;;;18.98;17.88;;;5.10;89.70;;;;;;5052692;28;20287;-71
2022/01/31 08:08:49;;;;;;;18.20;17.00;;;5.20;89.40;;;;;;5052690;28;20196;-71
2022/01/31 08:11:16;;;;;;;19.10;17.90;;;5.20;89.90;;;;;;5052309;28;20300;-72
2022/01/31 08:13:43;;;;;;;15.77;14.85;;;5.20;89.90;;;;;;5052821;28;20367;-71
2022/01/31 08:16:15;;;;;;;18.65;17.75;;;5.20;89.90;;;;;;5052516;28;20196;-72
2022/01/31 08:18:44;;;;;;;19.50;18.38;;;5.20;89.50;;;;;;5052689;28;20255;-71
2022/01/31 08:21:14;;;;;;;19.90;18.80;;;5.30;89.20;;;;;;5052350;28;20761;-72
2022/01/31 08:23:41;;;;;;;16.27;15.48;;;5.30;89.10;;;;;;5052502;28;20201;-72
2022/01/31 08:26:11;;;;;;;20.10;18.88;;;5.40;89.10;;;;;;5052669;28;20199;-72
2022/01/31 08:28:41;;;;;;;19.52;18.13;;;5.40;88.90;;;;;;5052543;28;20250;-72
2022/01/31 08:31:15;;;;;;;18.15;17.25;;;5.50;88.90;;;;;;5052282;28;20225;-71
2022/01/31 08:33:48;;;;;;;18.63;17.52;;;5.50;88.50;;;;;;5052615;28;20259;-72
2022/01/31 08:36:15;;;;;;;19.98;18.52;;;5.60;88.30;;;;;;5052467;28;20254;-71
2022/01/31 08:38:44;;;;;;;17.80;16.90;;;5.70;87.90;;;;;;5052385;28;20220;-71
2022/01/31 08:41:12;;;;;;;17.85;17.00;;;5.80;87.90;;;;;;5052035;28;20216;-71
2022/01/31 08:43:40;;;;;;;18.33;17.42;;;5.70;87.00;;;;;;5052249;28;20197;-71
2022/01/31 08:46:08;;;;;;;20.10;19.05;;;5.80;87.10;;;;;;5052183;28;20203;-71
2022/01/31 08:48:36;;;;;;;18.63;17.63;;;5.70;86.80;;;;;;5052102;28;20193;-72
2022/01/31 08:51:07;;;;;;;17.77;16.88;;;5.70;86.60;;;;;;5051789;28;20217;-72
2022/01/31 08:53:34;;;;;;;18.40;17.50;;;5.70;86.60;;;;;;5052150;28;20403;-72
2022/01/31 08:56:05;;;;;;;19.13;18.23;;;5.70;86.30;;;;;;5052005;28;20565;-71
2022/01/31 08:58:33;;;;;;;19.50;18.50;;;5.80;86.30;;;;;;5051996;28;20217;-72
2022/01/31 09:01:01;;;;;;;18.42;17.50;;;5.80;86.00;;;;;;5051655;28;20228;-72
2022/01/31 09:06:17;;;;;;;19.23;18.23;;;6.00;85.50;;;;;;5048708;28;20194;-72
2022/01/31 09:08:44;;;;;;;19.08;18.08;;;6.10;84.40;;;;;;5052547;28;20197;-72
2022/01/31 09:11:11;;;;;;;18.90;17.90;;;6.20;84.40;;;;;;5051566;28;20221;-71
2022/01/31 09:13:39;;;;;;;19.77;18.77;;;6.30;84.00;;;;;;5052146;28;20200;-72
2022/01/31 09:16:07;;;;;;;19.15;18.15;;;6.30;83.20;;;;;;5052330;28;20598;-72
2022/01/31 09:18:35;;;;;;;19.55;18.42;;;6.40;82.60;;;;;;5051928;28;20223;-72
2022/01/31 09:21:02;;;;;;;20.88;19.88;;;6.50;81.60;;;;;;5051910;28;20220;-72
2022/01/31 09:23:31;;;;;;;20.63;19.42;;;6.50;80.90;;;;;;5051998;28;20287;-72
2022/01/31 09:25:59;;;;;;;20.55;19.35;;;6.60;81.20;;;;;;5051872;28;20197;-72
2022/01/31 09:28:27;;;;;;;20.40;19.30;;;6.80;80.50;;;;;;5051957;28;20661;-72
2022/01/31 09:30:55;;;;;;;21.40;20.30;;;6.90;80.00;;;;;;5051581;28;20221;-72
2022/01/31 09:33:22;;;;;;;22.48;21.30;;;7.00;79.80;;;;;;5051901;28;20666;-72
2022/01/31 09:35:49;;;;;;;20.83;19.42;;;7.10;78.30;;;;;;5051716;28;20322;-72
2022/01/31 09:38:18;;;;;;;20.98;19.77;;;7.10;78.10;;;;;;5051653;28;20311;-72
2022/01/31 09:40:46;;;;;;;20.23;19.20;;;7.20;77.30;;;;;;5051616;28;20221;-72
2022/01/31 09:46:15;;;;;;;22.50;21.20;;;7.20;77.10;;;;;;5051759;28;20197;-72
2022/01/31 09:48:44;;;;;;;21.15;19.95;;;7.00;76.40;;;;;;5051583;28;20561;-72
2022/01/31 09:51:12;;;;;;;21.25;20.05;;;6.90;76.50;;;;;;5051511;28;20212;-72
2022/01/31 09:53:42;;;;;;;21.70;20.40;;;6.90;77.80;;;;;;5051746;28;20201;-72
2022/01/31 09:56:13;;;;;;;21.55;20.10;;;7.10;77.20;;;;;;5051633;28;20207;-72
2022/01/31 09:58:41;;;;;;;21.52;20.23;;;7.10;76.80;;;;;;5051503;28;20307;-72
2022/01/31 10:01:10;;;;;;;23.38;21.98;;;7.10;76.20;;;;;;5051486;28;20308;-72
2022/01/31 10:03:48;;;;;;;21.58;20.33;;;7.00;75.90;;;;;;5055333;28;20205;-71
2022/01/31 10:06:23;;;;;;;21.88;20.50;;;6.90;76.20;;;;;;5055150;28;20215;-72
2022/01/31 10:09:01;;;;;;;22.38;21.17;;;6.80;76.80;;;;;;5055040;28;20654;-71
2022/01/31 10:11:38;;;;;;;23.85;22.45;;;6.70;76.90;;;;;;5054949;28;20219;-71
2022/01/31 10:16:59;;;;;;;21.42;20.33;;;6.70;76.10;;;;;;5055221;28;20200;-71
2022/01/31 10:19:26;;;;;;;21.38;20.40;;;6.70;76.50;;;;;;5054647;28;20589;-71
2022/01/31 10:21:56;;;;;;;22.77;21.42;;;6.70;76.90;;;;;;5054899;28;20223;-71
2022/01/31 10:24:24;;;;;;;22.15;20.95;;;6.90;76.20;;;;;;5054918;28;20287;-71
2022/01/31 10:26:53;;;;;;;22.00;20.80;;;7.10;75.60;;;;;;5054871;28;20276;-71
2022/01/31 10:29:22;;;;;;;22.63;21.33;;;7.10;74.70;;;;;;5054683;28;20614;-72
2022/01/31 10:32:02;;;;;;;21.67;20.25;;;7.20;74.80;;;;;;5054838;28;20224;-72
2022/01/31 10:34:31;;;;;;;22.90;21.67;;;7.10;74.30;;;;;;5054680;28;20204;-72
2022/01/31 10:37:04;;;;;;;21.50;20.30;;;7.00;74.60;;;;;;5054601;28;20373;-71
2022/01/31 10:54:07;;;;;;;21.45;20.23;;;7.00;73.60;;;;;;5054384;28;20188;-72
2022/01/31 10:56:38;;;;;;;22.40;21.13;;;7.30;73.20;;;;;;5054226;28;20658;-72
2022/01/31 10:59:09;;;;;;;21.95;20.75;;;7.30;71.90;;;;;;5053843;28;20690;-72
2022/01/31 11:01:38;;;;;;;22.75;21.40;;;7.20;72.30;;;;;;5054099;28;20224;-72
2022/01/31 11:04:07;;;;;;;22.40;21.10;;;7.20;73.10;;;;;;5054130;28;20220;-72
2022/01/31 11:06:35;;;;;;;24.58;23.08;;;7.30;72.10;;;;;;5054048;28;20192;-72
2022/01/31 11:09:07;;;;;;;23.50;22.00;;;7.30;71.90;;;;;;5053946;28;20267;-72
2022/01/31 11:11:35;;;;;;;22.67;21.45;;;7.20;72.00;;;;;;5053685;28;20209;-72
2022/01/31 11:14:03;;;;;;;22.85;21.42;;;7.20;71.50;;;;;;5052869;28;20207;-71
2022/01/31 11:16:31;;;;;;;23.40;22.10;;;7.30;72.40;;;;;;5053719;28;20200;-71
2022/01/31 11:19:02;;;;;;;24.50;22.90;;;7.40;72.00;;;;;;5053591;28;20220;-71
2022/01/31 11:21:33;;;;;;;23.40;21.80;;;7.50;70.90;;;;;;5053708;28;20213;-71
2022/01/31 11:24:02;;;;;;;23.05;21.55;;;7.50;71.50;;;;;;5053658;28;20196;-72
2022/01/31 11:26:36;;;;;;;23.83;22.50;;;7.70;70.90;;;;;;5053580;28;20254;-71
2022/01/31 11:29:05;;;;;;;24.88;22.98;;;7.70;71.00;;;;;;5053687;28;20211;-71
2022/01/31 11:31:36;;;;;;;22.88;21.52;;;7.80;70.80;;;;;;5053569;28;20227;-71
2022/01/31 11:34:04;;;;;;;22.55;21.13;;;7.60;71.50;;;;;;5053468;28;20390;-71
2022/01/31 11:36:33;;;;;;;22.27;21.00;;;7.50;71.40;;;;;;5053258;28;20196;-71
2022/01/31 11:39:00;;;;;;;22.10;20.80;;;7.20;71.90;;;;;;5053370;28;20765;-71
2022/01/31 11:41:28;;;;;;;22.80;21.48;;;7.00;73.60;;;;;;5053363;28;20220;-71
2022/01/31 11:43:59;;;;;;;24.38;22.90;;;7.00;74.20;;;;;;5053384;28;20718;-71
2022/01/31 11:46:28;;;;;;;22.52;21.35;;;7.10;73.70;;;;;;5053299;28;20196;-72
2022/01/31 11:48:57;;;;;;;22.23;21.02;;;7.10;74.70;;;;;;5053102;28;20284;-72
2022/01/31 11:51:24;;;;;;;22.25;20.92;;;6.90;74.50;;;;;;5052879;28;20706;-72
2022/01/31 11:54:06;;;;;;;22.55;21.25;;;6.90;75.30;;;;;;5053194;28;20598;-71
2022/01/31 11:56:44;;;;;;;22.27;20.88;;;7.00;75.70;;;;;;5052926;28;20573;-72
2022/01/31 11:59:14;;;;;;;22.90;21.55;;;7.00;75.30;;;;;;5052673;28;20223;-71
2022/01/31 12:01:43;;;;;;;22.58;21.20;;;7.00;75.50;;;;;;5052992;28;20240;-71
2022/01/31 12:04:13;;;;;;;24.60;22.73;;;6.80;75.80;;;;;;5052923;28;20213;-71
2022/01/31 12:06:40;;;;;;;21.92;20.63;;;6.80;75.70;;;;;;5052856;28;20196;-72
2022/01/31 12:09:11;;;;;;;22.33;20.88;;;6.80;75.60;;;;;;5052796;28;20283;-71
2022/01/31 12:11:53;;;;;;;21.50;20.40;;;6.80;76.10;;;;;;5052587;28;20716;-71
2022/01/31 12:14:25;;;;;;;21.60;20.20;;;6.70;75.70;;;;;;5052635;28;20212;-71
2022/01/31 12:17:10;;;;;;;21.85;20.50;;;6.60;76.60;;;;;;5052650;28;20205;-71
2022/01/31 12:19:59;;;;;;;22.10;20.90;;;6.50;76.50;;;;;;5052425;28;20226;-71
2022/01/31 12:22:47;;;;;;;21.55;20.42;;;6.50;77.00;;;;;;5052770;28;20224;-71
2022/01/31 12:25:28;;;;;;;20.10;19.00;;;6.60;77.70;;;;;;5052378;28;20200;-71
2022/01/31 12:27:56;;;;;;;21.67;20.38;;;6.70;76.80;;;;;;5052688;28;20654;-71
2022/01/31 12:30:37;;;;;;;20.17;19.13;;;6.90;76.70;;;;;;5052435;28;20208;-71
2022/01/31 12:33:04;;;;;;;20.95;19.75;;;7.00;76.50;;;;;;5052481;28;20204;-71
2022/01/31 12:35:35;;;;;;;21.75;20.38;;;7.10;76.10;;;;;;5052492;28;20192;-71
2022/01/31 12:38:03;;;;;;;21.65;20.23;;;7.10;75.90;;;;;;5052613;28;20215;-72
2022/01/31 12:40:33;;;;;;;20.40;19.10;;;7.00;76.10;;;;;;5052192;28;20227;-71
2022/01/31 12:46:17;;;;;;;21.00;19.60;;;6.90;76.80;;;;;;5052403;28;20270;-72
2022/01/31 12:49:10;;;;;;;22.45;20.95;;;6.90;77.20;;;;;;5052269;28;20200;-71
2022/01/31 12:51:59;;;;;;;22.08;20.55;;;6.80;76.90;;;;;;5052191;28;20216;-71
2022/01/31 12:54:27;;;;;;;20.38;19.17;;;6.80;78.30;;;;;;5052339;28;20206;-71
2022/01/31 12:56:54;;;;;;;20.90;19.63;;;6.90;77.80;;;;;;5052391;28;20280;-71
2022/01/31 12:59:22;;;;;;;21.67;20.58;;;6.90;78.10;;;;;;5051818;28;20251;-71
2022/01/31 13:01:51;;;;;;;21.20;20.00;;;6.90;78.00;;;;;;5052154;28;20220;-71
2022/01/31 13:04:21;;;;;;;22.20;20.80;;;6.90;77.80;;;;;;5052093;28;20239;-71
2022/01/31 13:06:49;;;;;;;21.23;19.70;;;6.90;77.40;;;;;;5052293;28;20223;-71
2022/01/31 13:09:23;;;;;;;22.15;20.30;;;6.80;77.80;;;;;;5051982;28;20200;-71
2022/01/31 13:11:53;;;;;;;22.90;21.60;;;6.70;77.70;;;;;;5052180;28;20216;-71